sensor_id;sensor_type;location;lat;lon;timestamp;P1;durP1;ratioP1;P2;durP2;ratioP2
9178;SDS011;71287;48.414;11.478;2023-07-13T00:00:03;3.10;;;2.80;;
9178;SDS011;71287;48.414;11.478;2023-07-13T00:02:33;3.60;;;2.70;;
9178;SDS011;71287;48.414;11.478;2023-07-13T00:05:02;3.30;;;3.00;;
9178;SDS011;71287;48.414;11.478;2023-07-13T00:07:29;3.93;;;2.67;;
9178;SDS011;71287;48.414;11.478;2023-07-13T00:09:56;3.20;;;2.90;;
9178;SDS011;71287;48.414;11.478;2023-07-13T00:12:25;4.03;;;2.73;;
9178;SDS011;71287;48.414;11.478;2023-07-13T00:14:53;3.77;;;3.00;;
9178;SDS011;71287;48.414;11.478;2023-07-13T00:17:22;3.20;;;2.97;;
9178;SDS011;71287;48.414;11.478;2023-07-13T00:19:48;5.47;;;3.17;;
9178;SDS011;71287;48.414;11.478;2023-07-13T00:22:16;4.33;;;2.60;;
9178;SDS011;71287;48.414;11.478;2023-07-13T00:24:43;3.13;;;2.83;;
9178;SDS011;71287;48.414;11.478;2023-07-13T00:27:10;2.97;;;2.67;;
9178;SDS011;71287;48.414;11.478;2023-07-13T00:29:37;3.73;;;3.20;;
9178;SDS011;71287;48.414;11.478;2023-07-13T00:32:05;4.33;;;2.60;;
9178;SDS011;71287;48.414;11.478;2023-07-13T00:34:33;2.80;;;2.60;;
9178;SDS011;71287;48.414;11.478;2023-07-13T00:37:00;2.60;;;2.40;;
9178;SDS011;71287;48.414;11.478;2023-07-13T00:39:28;4.63;;;3.10;;
9178;SDS011;71287;48.414;11.478;2023-07-13T00:41:55;3.23;;;2.50;;
9178;SDS011;71287;48.414;11.478;2023-07-13T00:44:22;3.97;;;2.67;;
9178;SDS011;71287;48.414;11.478;2023-07-13T00:46:49;2.70;;;2.50;;
9178;SDS011;71287;48.414;11.478;2023-07-13T00:49:16;3.13;;;2.27;;
9178;SDS011;71287;48.414;11.478;2023-07-13T00:51:48;4.87;;;2.63;;
9178;SDS011;71287;48.414;11.478;2023-07-13T00:54:19;4.40;;;2.73;;
9178;SDS011;71287;48.414;11.478;2023-07-13T00:56:50;3.67;;;2.80;;
9178;SDS011;71287;48.414;11.478;2023-07-13T00:59:19;5.80;;;3.10;;
9178;SDS011;71287;48.414;11.478;2023-07-13T01:01:47;3.50;;;2.67;;
9178;SDS011;71287;48.414;11.478;2023-07-13T01:04:14;2.83;;;2.37;;
9178;SDS011;71287;48.414;11.478;2023-07-13T01:06:41;3.37;;;2.33;;
9178;SDS011;71287;48.414;11.478;2023-07-13T01:09:10;2.63;;;2.43;;
9178;SDS011;71287;48.414;11.478;2023-07-13T01:11:37;6.97;;;2.63;;
9178;SDS011;71287;48.414;11.478;2023-07-13T01:14:06;3.60;;;2.40;;
9178;SDS011;71287;48.414;11.478;2023-07-13T01:16:34;3.50;;;2.50;;
9178;SDS011;71287;48.414;11.478;2023-07-13T01:19:02;4.60;;;2.20;;
9178;SDS011;71287;48.414;11.478;2023-07-13T01:21:35;4.37;;;2.50;;
9178;SDS011;71287;48.414;11.478;2023-07-13T01:24:07;2.93;;;2.23;;
9178;SDS011;71287;48.414;11.478;2023-07-13T01:26:34;3.43;;;2.73;;
9178;SDS011;71287;48.414;11.478;2023-07-13T01:29:01;4.00;;;2.27;;
9178;SDS011;71287;48.414;11.478;2023-07-13T01:31:28;6.77;;;2.73;;
9178;SDS011;71287;48.414;11.478;2023-07-13T01:33:55;4.90;;;2.60;;
9178;SDS011;71287;48.414;11.478;2023-07-13T01:36:22;3.87;;;2.37;;
9178;SDS011;71287;48.414;11.478;2023-07-13T01:38:51;3.03;;;2.53;;
9178;SDS011;71287;48.414;11.478;2023-07-13T01:41:17;3.33;;;2.30;;
9178;SDS011;71287;48.414;11.478;2023-07-13T01:43:44;2.80;;;2.13;;
9178;SDS011;71287;48.414;11.478;2023-07-13T01:46:11;4.40;;;2.40;;
9178;SDS011;71287;48.414;11.478;2023-07-13T01:48:38;5.00;;;2.40;;
9178;SDS011;71287;48.414;11.478;2023-07-13T01:51:04;3.77;;;2.50;;
9178;SDS011;71287;48.414;11.478;2023-07-13T01:53:31;3.37;;;2.17;;
9178;SDS011;71287;48.414;11.478;2023-07-13T01:55:59;3.77;;;2.40;;
9178;SDS011;71287;48.414;11.478;2023-07-13T01:58:26;7.60;;;2.97;;
9178;SDS011;71287;48.414;11.478;2023-07-13T02:00:53;4.83;;;2.90;;
9178;SDS011;71287;48.414;11.478;2023-07-13T02:03:19;5.40;;;2.83;;
9178;SDS011;71287;48.414;11.478;2023-07-13T02:05:46;5.30;;;2.93;;
9178;SDS011;71287;48.414;11.478;2023-07-13T02:08:13;3.27;;;2.77;;
9178;SDS011;71287;48.414;11.478;2023-07-13T02:10:40;4.57;;;2.30;;
9178;SDS011;71287;48.414;11.478;2023-07-13T02:13:08;4.20;;;2.37;;
9178;SDS011;71287;48.414;11.478;2023-07-13T02:15:37;4.60;;;2.50;;
9178;SDS011;71287;48.414;11.478;2023-07-13T02:18:05;4.50;;;2.57;;
9178;SDS011;71287;48.414;11.478;2023-07-13T02:20:31;3.53;;;2.77;;
9178;SDS011;71287;48.414;11.478;2023-07-13T02:22:58;4.63;;;3.27;;
9178;SDS011;71287;48.414;11.478;2023-07-13T02:25:25;3.13;;;2.77;;
9178;SDS011;71287;48.414;11.478;2023-07-13T02:27:52;8.07;;;2.90;;
9178;SDS011;71287;48.414;11.478;2023-07-13T02:30:20;6.13;;;2.87;;
9178;SDS011;71287;48.414;11.478;2023-07-13T02:32:49;5.77;;;2.90;;
9178;SDS011;71287;48.414;11.478;2023-07-13T02:35:16;7.57;;;3.30;;
9178;SDS011;71287;48.414;11.478;2023-07-13T02:37:43;6.80;;;2.90;;
9178;SDS011;71287;48.414;11.478;2023-07-13T02:40:10;5.93;;;3.03;;
9178;SDS011;71287;48.414;11.478;2023-07-13T02:42:37;4.13;;;2.97;;
9178;SDS011;71287;48.414;11.478;2023-07-13T02:45:04;5.70;;;3.40;;
9178;SDS011;71287;48.414;11.478;2023-07-13T02:47:33;5.93;;;3.10;;
9178;SDS011;71287;48.414;11.478;2023-07-13T02:50:00;4.03;;;2.83;;
9178;SDS011;71287;48.414;11.478;2023-07-13T02:52:28;3.13;;;2.80;;
9178;SDS011;71287;48.414;11.478;2023-07-13T02:54:55;8.27;;;3.07;;
9178;SDS011;71287;48.414;11.478;2023-07-13T02:57:21;3.83;;;3.07;;
9178;SDS011;71287;48.414;11.478;2023-07-13T02:59:48;6.20;;;3.07;;
9178;SDS011;71287;48.414;11.478;2023-07-13T03:02:15;4.80;;;3.07;;
9178;SDS011;71287;48.414;11.478;2023-07-13T03:04:44;8.87;;;3.13;;
9178;SDS011;71287;48.414;11.478;2023-07-13T03:07:10;5.33;;;3.00;;
9178;SDS011;71287;48.414;11.478;2023-07-13T03:09:39;5.17;;;3.30;;
9178;SDS011;71287;48.414;11.478;2023-07-13T03:12:06;9.30;;;3.17;;
9178;SDS011;71287;48.414;11.478;2023-07-13T03:14:33;3.40;;;3.10;;
9178;SDS011;71287;48.414;11.478;2023-07-13T03:17:00;4.53;;;3.10;;
9178;SDS011;71287;48.414;11.478;2023-07-13T03:19:27;5.07;;;3.03;;
9178;SDS011;71287;48.414;11.478;2023-07-13T03:21:55;8.50;;;3.53;;
9178;SDS011;71287;48.414;11.478;2023-07-13T03:24:22;7.43;;;3.27;;
9178;SDS011;71287;48.414;11.478;2023-07-13T03:26:50;9.17;;;3.70;;
9178;SDS011;71287;48.414;11.478;2023-07-13T03:29:17;6.97;;;3.70;;
9178;SDS011;71287;48.414;11.478;2023-07-13T03:31:44;6.20;;;3.23;;
9178;SDS011;71287;48.414;11.478;2023-07-13T03:34:11;6.73;;;3.00;;
9178;SDS011;71287;48.414;11.478;2023-07-13T03:36:38;5.43;;;3.50;;
9178;SDS011;71287;48.414;11.478;2023-07-13T03:39:06;11.53;;;3.90;;
9178;SDS011;71287;48.414;11.478;2023-07-13T03:41:34;4.67;;;3.60;;
9178;SDS011;71287;48.414;11.478;2023-07-13T03:44:01;5.00;;;3.53;;
9178;SDS011;71287;48.414;11.478;2023-07-13T03:46:28;5.70;;;3.03;;
9178;SDS011;71287;48.414;11.478;2023-07-13T03:48:55;7.27;;;3.47;;
9178;SDS011;71287;48.414;11.478;2023-07-13T03:51:22;4.77;;;3.23;;
9178;SDS011;71287;48.414;11.478;2023-07-13T03:53:49;6.43;;;3.20;;
9178;SDS011;71287;48.414;11.478;2023-07-13T03:56:17;5.20;;;3.73;;
9178;SDS011;71287;48.414;11.478;2023-07-13T03:58:45;5.27;;;3.30;;
9178;SDS011;71287;48.414;11.478;2023-07-13T04:01:14;7.47;;;3.23;;
9178;SDS011;71287;48.414;11.478;2023-07-13T04:03:42;4.07;;;3.67;;
9178;SDS011;71287;48.414;11.478;2023-07-13T04:06:12;5.40;;;3.37;;
9178;SDS011;71287;48.414;11.478;2023-07-13T04:08:46;4.97;;;3.27;;
9178;SDS011;71287;48.414;11.478;2023-07-13T04:11:14;7.13;;;3.33;;
9178;SDS011;71287;48.414;11.478;2023-07-13T04:13:42;5.73;;;3.83;;
9178;SDS011;71287;48.414;11.478;2023-07-13T04:16:09;5.77;;;3.00;;
9178;SDS011;71287;48.414;11.478;2023-07-13T04:18:36;6.13;;;3.33;;
9178;SDS011;71287;48.414;11.478;2023-07-13T04:21:03;7.07;;;3.30;;
9178;SDS011;71287;48.414;11.478;2023-07-13T04:23:30;4.40;;;3.17;;
9178;SDS011;71287;48.414;11.478;2023-07-13T04:25:56;5.50;;;3.43;;
9178;SDS011;71287;48.414;11.478;2023-07-13T04:28:24;6.00;;;3.37;;
9178;SDS011;71287;48.414;11.478;2023-07-13T04:30:53;6.30;;;3.30;;
9178;SDS011;71287;48.414;11.478;2023-07-13T04:33:20;4.47;;;3.27;;
9178;SDS011;71287;48.414;11.478;2023-07-13T04:35:48;2.93;;;2.63;;
9178;SDS011;71287;48.414;11.478;2023-07-13T04:38:21;4.60;;;3.13;;
9178;SDS011;71287;48.414;11.478;2023-07-13T04:40:49;5.00;;;3.37;;
9178;SDS011;71287;48.414;11.478;2023-07-13T04:43:17;7.07;;;3.37;;
9178;SDS011;71287;48.414;11.478;2023-07-13T04:45:44;3.33;;;2.67;;
9178;SDS011;71287;48.414;11.478;2023-07-13T04:48:12;2.87;;;2.53;;
9178;SDS011;71287;48.414;11.478;2023-07-13T04:50:39;4.37;;;2.73;;
9178;SDS011;71287;48.414;11.478;2023-07-13T04:53:06;4.87;;;2.90;;
9178;SDS011;71287;48.414;11.478;2023-07-13T04:55:32;3.93;;;2.60;;
9178;SDS011;71287;48.414;11.478;2023-07-13T04:57:59;6.50;;;2.80;;
9178;SDS011;71287;48.414;11.478;2023-07-13T05:00:27;4.47;;;2.40;;
9178;SDS011;71287;48.414;11.478;2023-07-13T05:02:55;3.17;;;2.20;;
9178;SDS011;71287;48.414;11.478;2023-07-13T05:05:23;5.67;;;2.53;;
9178;SDS011;71287;48.414;11.478;2023-07-13T05:07:51;2.50;;;2.30;;
9178;SDS011;71287;48.414;11.478;2023-07-13T05:10:19;5.07;;;2.57;;
9178;SDS011;71287;48.414;11.478;2023-07-13T05:12:46;3.90;;;2.53;;
9178;SDS011;71287;48.414;11.478;2023-07-13T05:15:13;3.00;;;2.13;;
9178;SDS011;71287;48.414;11.478;2023-07-13T05:17:40;3.43;;;2.23;;
9178;SDS011;71287;48.414;11.478;2023-07-13T05:20:07;2.20;;;1.90;;
9178;SDS011;71287;48.414;11.478;2023-07-13T05:22:36;5.23;;;2.17;;
9178;SDS011;71287;48.414;11.478;2023-07-13T05:25:04;2.97;;;1.70;;
9178;SDS011;71287;48.414;11.478;2023-07-13T05:27:32;4.47;;;1.93;;
9178;SDS011;71287;48.414;11.478;2023-07-13T05:29:59;4.30;;;1.83;;
9178;SDS011;71287;48.414;11.478;2023-07-13T05:32:26;2.40;;;1.80;;
9178;SDS011;71287;48.414;11.478;2023-07-13T05:34:53;3.20;;;1.77;;
9178;SDS011;71287;48.414;11.478;2023-07-13T05:37:20;3.27;;;1.70;;
9178;SDS011;71287;48.414;11.478;2023-07-13T05:39:48;4.07;;;1.63;;
9178;SDS011;71287;48.414;11.478;2023-07-13T05:42:15;3.30;;;1.40;;
9178;SDS011;71287;48.414;11.478;2023-07-13T05:44:42;3.67;;;1.70;;
9178;SDS011;71287;48.414;11.478;2023-07-13T05:47:08;2.30;;;1.60;;
9178;SDS011;71287;48.414;11.478;2023-07-13T05:49:35;4.20;;;1.47;;
9178;SDS011;71287;48.414;11.478;2023-07-13T05:52:02;4.17;;;1.70;;
9178;SDS011;71287;48.414;11.478;2023-07-13T05:54:29;2.50;;;1.67;;
9178;SDS011;71287;48.414;11.478;2023-07-13T05:56:57;2.77;;;1.57;;
9178;SDS011;71287;48.414;11.478;2023-07-13T05:59:24;2.93;;;1.70;;
9178;SDS011;71287;48.414;11.478;2023-07-13T06:01:51;3.07;;;1.50;;
9178;SDS011;71287;48.414;11.478;2023-07-13T06:04:18;3.53;;;1.77;;
9178;SDS011;71287;48.414;11.478;2023-07-13T06:06:45;7.23;;;1.70;;
9178;SDS011;71287;48.414;11.478;2023-07-13T06:09:12;3.17;;;1.70;;
9178;SDS011;71287;48.414;11.478;2023-07-13T06:11:39;1.93;;;1.47;;
9178;SDS011;71287;48.414;11.478;2023-07-13T06:14:07;3.40;;;1.60;;
9178;SDS011;71287;48.414;11.478;2023-07-13T06:16:33;4.53;;;1.58;;
9178;SDS011;71287;48.414;11.478;2023-07-13T06:19:00;4.60;;;1.30;;
9178;SDS011;71287;48.414;11.478;2023-07-13T06:21:27;3.30;;;1.27;;
9178;SDS011;71287;48.414;11.478;2023-07-13T06:23:54;2.15;;;1.40;;
9178;SDS011;71287;48.414;11.478;2023-07-13T06:26:21;3.55;;;1.10;;
9178;SDS011;71287;48.414;11.478;2023-07-13T06:28:48;4.20;;;1.35;;
9178;SDS011;71287;48.414;11.478;2023-07-13T06:31:16;5.18;;;1.35;;
9178;SDS011;71287;48.414;11.478;2023-07-13T06:33:43;4.45;;;1.20;;
9178;SDS011;71287;48.414;11.478;2023-07-13T06:36:10;2.35;;;1.48;;
9178;SDS011;71287;48.414;11.478;2023-07-13T06:38:37;2.22;;;0.98;;
9178;SDS011;71287;48.414;11.478;2023-07-13T06:41:05;2.60;;;0.98;;
9178;SDS011;71287;48.414;11.478;2023-07-13T06:43:32;5.10;;;1.23;;
9178;SDS011;71287;48.414;11.478;2023-07-13T06:45:59;1.63;;;1.20;;
9178;SDS011;71287;48.414;11.478;2023-07-13T06:48:27;1.73;;;1.10;;
9178;SDS011;71287;48.414;11.478;2023-07-13T06:50:54;3.53;;;1.05;;
9178;SDS011;71287;48.414;11.478;2023-07-13T06:53:22;2.95;;;1.13;;
9178;SDS011;71287;48.414;11.478;2023-07-13T06:55:49;1.55;;;1.00;;
9178;SDS011;71287;48.414;11.478;2023-07-13T06:58:16;2.15;;;0.90;;
9178;SDS011;71287;48.414;11.478;2023-07-13T07:00:44;2.95;;;0.70;;
9178;SDS011;71287;48.414;11.478;2023-07-13T07:03:11;3.97;;;1.17;;
9178;SDS011;71287;48.414;11.478;2023-07-13T07:05:40;2.22;;;1.10;;
9178;SDS011;71287;48.414;11.478;2023-07-13T07:08:07;1.63;;;0.93;;
9178;SDS011;71287;48.414;11.478;2023-07-13T07:10:34;3.17;;;0.90;;
9178;SDS011;71287;48.414;11.478;2023-07-13T07:13:01;1.20;;;0.80;;
9178;SDS011;71287;48.414;11.478;2023-07-13T07:15:29;5.28;;;1.30;;
9178;SDS011;71287;48.414;11.478;2023-07-13T07:17:56;2.05;;;0.95;;
9178;SDS011;71287;48.414;11.478;2023-07-13T07:20:23;2.78;;;1.08;;
9178;SDS011;71287;48.414;11.478;2023-07-13T07:22:52;3.40;;;1.13;;
9178;SDS011;71287;48.414;11.478;2023-07-13T07:25:19;2.50;;;1.05;;
9178;SDS011;71287;48.414;11.478;2023-07-13T07:27:46;2.20;;;1.00;;
9178;SDS011;71287;48.414;11.478;2023-07-13T07:30:13;2.83;;;0.77;;
9178;SDS011;71287;48.414;11.478;2023-07-13T07:32:40;3.75;;;1.08;;
9178;SDS011;71287;48.414;11.478;2023-07-13T07:35:07;1.42;;;0.85;;
9178;SDS011;71287;48.414;11.478;2023-07-13T07:37:34;1.05;;;1.00;;
9178;SDS011;71287;48.414;11.478;2023-07-13T07:40:02;3.38;;;0.90;;
9178;SDS011;71287;48.414;11.478;2023-07-13T07:42:30;3.80;;;0.90;;
9178;SDS011;71287;48.414;11.478;2023-07-13T07:44:56;3.05;;;1.08;;
9178;SDS011;71287;48.414;11.478;2023-07-13T07:47:23;2.15;;;0.82;;
9178;SDS011;71287;48.414;11.478;2023-07-13T07:49:50;1.35;;;1.02;;
9178;SDS011;71287;48.414;11.478;2023-07-13T07:52:17;4.60;;;1.27;;
9178;SDS011;71287;48.414;11.478;2023-07-13T07:54:44;3.90;;;1.10;;
9178;SDS011;71287;48.414;11.478;2023-07-13T07:57:12;4.65;;;1.30;;
9178;SDS011;71287;48.414;11.478;2023-07-13T07:59:39;3.78;;;1.00;;
9178;SDS011;71287;48.414;11.478;2023-07-13T08:02:06;1.67;;;0.95;;
9178;SDS011;71287;48.414;11.478;2023-07-13T08:04:34;2.53;;;0.98;;
9178;SDS011;71287;48.414;11.478;2023-07-13T08:07:01;1.50;;;0.90;;
9178;SDS011;71287;48.414;11.478;2023-07-13T08:09:28;1.73;;;1.00;;
9178;SDS011;71287;48.414;11.478;2023-07-13T08:11:55;1.88;;;0.90;;
9178;SDS011;71287;48.414;11.478;2023-07-13T08:14:23;2.05;;;1.33;;
9178;SDS011;71287;48.414;11.478;2023-07-13T08:16:50;2.90;;;1.10;;
9178;SDS011;71287;48.414;11.478;2023-07-13T08:19:17;2.85;;;1.20;;
9178;SDS011;71287;48.414;11.478;2023-07-13T08:21:44;3.50;;;0.93;;
9178;SDS011;71287;48.414;11.478;2023-07-13T08:24:13;1.45;;;0.90;;
9178;SDS011;71287;48.414;11.478;2023-07-13T08:26:40;2.08;;;1.13;;
9178;SDS011;71287;48.414;11.478;2023-07-13T08:29:06;2.72;;;1.10;;
9178;SDS011;71287;48.414;11.478;2023-07-13T08:31:34;2.10;;;1.10;;
9178;SDS011;71287;48.414;11.478;2023-07-13T08:34:01;2.85;;;1.30;;
9178;SDS011;71287;48.414;11.478;2023-07-13T08:36:28;3.28;;;1.20;;
9178;SDS011;71287;48.414;11.478;2023-07-13T08:38:56;1.10;;;0.90;;
9178;SDS011;71287;48.414;11.478;2023-07-13T08:41:22;1.60;;;1.10;;
9178;SDS011;71287;48.414;11.478;2023-07-13T08:43:50;5.65;;;1.00;;
9178;SDS011;71287;48.414;11.478;2023-07-13T08:46:24;2.53;;;1.02;;
9178;SDS011;71287;48.414;11.478;2023-07-13T08:48:55;1.20;;;0.75;;
9178;SDS011;71287;48.414;11.478;2023-07-13T08:51:29;1.48;;;0.93;;
9178;SDS011;71287;48.414;11.478;2023-07-13T08:54:01;2.97;;;0.85;;
9178;SDS011;71287;48.414;11.478;2023-07-13T08:56:34;4.90;;;0.93;;
9178;SDS011;71287;48.414;11.478;2023-07-13T08:59:01;2.83;;;1.20;;
9178;SDS011;71287;48.414;11.478;2023-07-13T09:01:34;5.18;;;1.15;;
9178;SDS011;71287;48.414;11.478;2023-07-13T09:04:22;6.32;;;1.58;;
9178;SDS011;71287;48.414;11.478;2023-07-13T09:06:55;3.15;;;1.00;;
9178;SDS011;71287;48.414;11.478;2023-07-13T09:09:29;2.63;;;1.00;;
9178;SDS011;71287;48.414;11.478;2023-07-13T09:12:07;2.53;;;1.00;;
9178;SDS011;71287;48.414;11.478;2023-07-13T09:14:41;2.40;;;0.90;;
9178;SDS011;71287;48.414;11.478;2023-07-13T09:17:12;2.50;;;0.70;;
9178;SDS011;71287;48.414;11.478;2023-07-13T09:19:45;2.90;;;1.02;;
9178;SDS011;71287;48.414;11.478;2023-07-13T09:22:18;2.55;;;0.85;;
9178;SDS011;71287;48.414;11.478;2023-07-13T09:24:53;1.15;;;0.60;;
9178;SDS011;71287;48.414;11.478;2023-07-13T09:27:27;2.83;;;0.90;;
9178;SDS011;71287;48.414;11.478;2023-07-13T09:30:01;2.38;;;0.93;;
9178;SDS011;71287;48.414;11.478;2023-07-13T09:32:36;2.78;;;0.68;;
9178;SDS011;71287;48.414;11.478;2023-07-13T09:35:09;2.08;;;0.77;;
9178;SDS011;71287;48.414;11.478;2023-07-13T09:37:37;2.40;;;0.95;;
9178;SDS011;71287;48.414;11.478;2023-07-13T09:40:08;1.67;;;0.70;;
9178;SDS011;71287;48.414;11.478;2023-07-13T09:42:39;0.93;;;0.68;;
9178;SDS011;71287;48.414;11.478;2023-07-13T09:45:07;1.55;;;0.73;;
9178;SDS011;71287;48.414;11.478;2023-07-13T09:47:38;2.65;;;0.98;;
9178;SDS011;71287;48.414;11.478;2023-07-13T09:50:06;1.65;;;0.80;;
9178;SDS011;71287;48.414;11.478;2023-07-13T09:52:40;2.47;;;0.90;;
9178;SDS011;71287;48.414;11.478;2023-07-13T09:55:22;1.85;;;0.90;;
9178;SDS011;71287;48.414;11.478;2023-07-13T09:57:55;2.53;;;0.90;;
9178;SDS011;71287;48.414;11.478;2023-07-13T10:00:23;2.05;;;0.82;;
9178;SDS011;71287;48.414;11.478;2023-07-13T10:02:58;3.03;;;0.90;;
9178;SDS011;71287;48.414;11.478;2023-07-13T10:05:28;1.33;;;0.77;;
9178;SDS011;71287;48.414;11.478;2023-07-13T10:08:05;3.40;;;0.93;;
9178;SDS011;71287;48.414;11.478;2023-07-13T10:10:32;1.52;;;0.82;;
9178;SDS011;71287;48.414;11.478;2023-07-13T10:13:01;2.25;;;0.80;;
9178;SDS011;71287;48.414;11.478;2023-07-13T10:15:30;2.28;;;0.88;;
9178;SDS011;71287;48.414;11.478;2023-07-13T10:17:58;1.92;;;0.60;;
9178;SDS011;71287;48.414;11.478;2023-07-13T10:20:25;4.00;;;0.90;;
9178;SDS011;71287;48.414;11.478;2023-07-13T10:22:54;1.20;;;0.70;;
9178;SDS011;71287;48.414;11.478;2023-07-13T10:25:29;2.65;;;1.05;;
9178;SDS011;71287;48.414;11.478;2023-07-13T10:28:01;2.42;;;0.85;;
9178;SDS011;71287;48.414;11.478;2023-07-13T10:30:32;1.63;;;1.00;;
9178;SDS011;71287;48.414;11.478;2023-07-13T10:33:02;3.30;;;0.90;;
9178;SDS011;71287;48.414;11.478;2023-07-13T10:35:31;0.95;;;0.70;;
9178;SDS011;71287;48.414;11.478;2023-07-13T10:38:00;2.58;;;0.73;;
9178;SDS011;71287;48.414;11.478;2023-07-13T10:40:33;1.52;;;0.80;;
9178;SDS011;71287;48.414;11.478;2023-07-13T10:43:04;0.73;;;0.65;;
9178;SDS011;71287;48.414;11.478;2023-07-13T10:45:35;1.63;;;0.73;;
9178;SDS011;71287;48.414;11.478;2023-07-13T10:48:03;0.70;;;0.70;;
9178;SDS011;71287;48.414;11.478;2023-07-13T10:50:31;1.50;;;0.70;;
9178;SDS011;71287;48.414;11.478;2023-07-13T10:53:01;1.10;;;0.70;;
9178;SDS011;71287;48.414;11.478;2023-07-13T10:55:34;1.95;;;0.68;;
9178;SDS011;71287;48.414;11.478;2023-07-13T10:58:13;1.95;;;0.70;;
9178;SDS011;71287;48.414;11.478;2023-07-13T11:00:48;2.63;;;0.70;;
9178;SDS011;71287;48.414;11.478;2023-07-13T11:03:20;1.48;;;0.80;;
9178;SDS011;71287;48.414;11.478;2023-07-13T11:05:51;1.55;;;0.70;;
9178;SDS011;71287;48.414;11.478;2023-07-13T11:08:34;1.50;;;0.40;;
9178;SDS011;71287;48.414;11.478;2023-07-13T11:11:05;1.48;;;0.70;;
9178;SDS011;71287;48.414;11.478;2023-07-13T11:13:59;2.60;;;0.52;;
9178;SDS011;71287;48.414;11.478;2023-07-13T11:19:27;2.33;;;0.60;;
9178;SDS011;71287;48.414;11.478;2023-07-13T11:25:21;2.40;;;0.65;;
9178;SDS011;71287;48.414;11.478;2023-07-13T11:28:05;4.40;;;0.80;;
9178;SDS011;71287;48.414;11.478;2023-07-13T11:30:40;1.40;;;0.60;;
9178;SDS011;71287;48.414;11.478;2023-07-13T11:33:11;1.38;;;0.65;;
9178;SDS011;71287;48.414;11.478;2023-07-13T11:35:42;0.93;;;0.85;;
9178;SDS011;71287;48.414;11.478;2023-07-13T11:38:14;2.75;;;0.60;;
9178;SDS011;71287;48.414;11.478;2023-07-13T11:40:44;1.13;;;0.77;;
9178;SDS011;71287;48.414;11.478;2023-07-13T11:43:14;0.93;;;0.60;;
9178;SDS011;71287;48.414;11.478;2023-07-13T11:45:42;0.82;;;0.77;;
9178;SDS011;71287;48.414;11.478;2023-07-13T11:48:17;1.90;;;0.70;;
9178;SDS011;71287;48.414;11.478;2023-07-13T11:50:49;3.80;;;0.80;;
9178;SDS011;71287;48.414;11.478;2023-07-13T11:53:17;0.75;;;0.70;;
9178;SDS011;71287;48.414;11.478;2023-07-13T11:55:44;3.72;;;0.73;;
9178;SDS011;71287;48.414;11.478;2023-07-13T11:58:11;4.53;;;0.80;;
9178;SDS011;71287;48.414;11.478;2023-07-13T12:00:42;1.08;;;0.52;;
9178;SDS011;71287;48.414;11.478;2023-07-13T12:03:10;1.20;;;0.70;;
9178;SDS011;71287;48.414;11.478;2023-07-13T12:05:39;1.75;;;0.70;;
9178;SDS011;71287;48.414;11.478;2023-07-13T12:08:22;2.25;;;0.85;;
9178;SDS011;71287;48.414;11.478;2023-07-13T12:10:55;2.42;;;1.05;;
9178;SDS011;71287;48.414;11.478;2023-07-13T12:13:24;1.50;;;0.80;;
9178;SDS011;71287;48.414;11.478;2023-07-13T12:15:53;2.25;;;0.80;;
9178;SDS011;71287;48.414;11.478;2023-07-13T12:18:22;5.28;;;0.90;;
9178;SDS011;71287;48.414;11.478;2023-07-13T12:20:55;1.60;;;0.70;;
9178;SDS011;71287;48.414;11.478;2023-07-13T12:23:24;1.50;;;0.88;;
9178;SDS011;71287;48.414;11.478;2023-07-13T12:25:54;2.15;;;0.77;;
9178;SDS011;71287;48.414;11.478;2023-07-13T12:28:29;2.80;;;1.00;;
9178;SDS011;71287;48.414;11.478;2023-07-13T12:31:01;1.85;;;0.80;;
9178;SDS011;71287;48.414;11.478;2023-07-13T12:33:30;2.08;;;0.77;;
9178;SDS011;71287;48.414;11.478;2023-07-13T12:35:59;1.25;;;0.90;;
9178;SDS011;71287;48.414;11.478;2023-07-13T12:38:28;1.83;;;0.80;;
9178;SDS011;71287;48.414;11.478;2023-07-13T12:40:57;1.85;;;0.90;;
9178;SDS011;71287;48.414;11.478;2023-07-13T12:43:25;1.30;;;0.80;;
9178;SDS011;71287;48.414;11.478;2023-07-13T12:45:59;1.50;;;1.00;;
9178;SDS011;71287;48.414;11.478;2023-07-13T12:48:27;1.23;;;0.70;;
9178;SDS011;71287;48.414;11.478;2023-07-13T12:50:55;1.60;;;1.05;;
9178;SDS011;71287;48.414;11.478;2023-07-13T12:53:22;2.00;;;0.90;;
9178;SDS011;71287;48.414;11.478;2023-07-13T12:55:56;1.67;;;0.95;;
9178;SDS011;71287;48.414;11.478;2023-07-13T12:58:26;1.67;;;0.57;;
9178;SDS011;71287;48.414;11.478;2023-07-13T13:00:55;1.13;;;0.80;;
9178;SDS011;71287;48.414;11.478;2023-07-13T13:03:27;1.17;;;0.80;;
9178;SDS011;71287;48.414;11.478;2023-07-13T13:05:58;0.80;;;0.75;;
9178;SDS011;71287;48.414;11.478;2023-07-13T13:08:28;1.23;;;0.82;;
9178;SDS011;71287;48.414;11.478;2023-07-13T13:10:55;1.40;;;0.95;;
9178;SDS011;71287;48.414;11.478;2023-07-13T13:13:22;0.90;;;0.60;;
9178;SDS011;71287;48.414;11.478;2023-07-13T13:15:49;2.60;;;1.00;;
9178;SDS011;71287;48.414;11.478;2023-07-13T13:18:18;1.95;;;0.80;;
9178;SDS011;71287;48.414;11.478;2023-07-13T13:20:47;1.50;;;0.80;;
9178;SDS011;71287;48.414;11.478;2023-07-13T13:23:15;1.88;;;0.80;;
9178;SDS011;71287;48.414;11.478;2023-07-13T13:25:43;1.23;;;0.88;;
9178;SDS011;71287;48.414;11.478;2023-07-13T13:28:13;0.55;;;0.50;;
9178;SDS011;71287;48.414;11.478;2023-07-13T13:30:41;2.28;;;0.85;;
9178;SDS011;71287;48.414;11.478;2023-07-13T13:33:09;0.70;;;0.65;;
9178;SDS011;71287;48.414;11.478;2023-07-13T13:35:39;1.90;;;0.82;;
9178;SDS011;71287;48.414;11.478;2023-07-13T13:38:10;1.15;;;0.70;;
9178;SDS011;71287;48.414;11.478;2023-07-13T13:40:39;1.85;;;0.90;;
9178;SDS011;71287;48.414;11.478;2023-07-13T13:43:12;1.73;;;0.73;;
9178;SDS011;71287;48.414;11.478;2023-07-13T13:45:41;2.22;;;0.90;;
9178;SDS011;71287;48.414;11.478;2023-07-13T13:48:09;1.88;;;0.75;;
9178;SDS011;71287;48.414;11.478;2023-07-13T13:50:42;1.98;;;0.90;;
9178;SDS011;71287;48.414;11.478;2023-07-13T13:53:10;1.45;;;0.85;;
9178;SDS011;71287;48.414;11.478;2023-07-13T13:55:38;3.13;;;0.60;;
9178;SDS011;71287;48.414;11.478;2023-07-13T13:58:07;2.13;;;0.88;;
9178;SDS011;71287;48.414;11.478;2023-07-13T14:00:35;1.02;;;0.93;;
9178;SDS011;71287;48.414;11.478;2023-07-13T14:03:04;2.25;;;1.00;;
9178;SDS011;71287;48.414;11.478;2023-07-13T14:05:32;3.13;;;1.05;;
9178;SDS011;71287;48.414;11.478;2023-07-13T14:08:00;2.50;;;0.80;;
9178;SDS011;71287;48.414;11.478;2023-07-13T14:10:27;1.90;;;0.85;;
9178;SDS011;71287;48.414;11.478;2023-07-13T14:12:55;0.70;;;0.70;;
9178;SDS011;71287;48.414;11.478;2023-07-13T14:15:24;3.20;;;0.90;;
9178;SDS011;71287;48.414;11.478;2023-07-13T14:17:53;0.73;;;0.73;;
9178;SDS011;71287;48.414;11.478;2023-07-13T14:20:21;1.08;;;0.75;;
9178;SDS011;71287;48.414;11.478;2023-07-13T14:22:49;2.28;;;0.88;;
9178;SDS011;71287;48.414;11.478;2023-07-13T14:25:19;1.92;;;0.93;;
9178;SDS011;71287;48.414;11.478;2023-07-13T14:27:48;1.40;;;0.70;;
9178;SDS011;71287;48.414;11.478;2023-07-13T14:30:18;2.15;;;1.05;;
9178;SDS011;71287;48.414;11.478;2023-07-13T14:32:46;2.92;;;0.77;;
9178;SDS011;71287;48.414;11.478;2023-07-13T14:35:14;1.02;;;0.70;;
9178;SDS011;71287;48.414;11.478;2023-07-13T14:37:42;2.67;;;0.93;;
9178;SDS011;71287;48.414;11.478;2023-07-13T14:40:12;1.20;;;0.70;;
9178;SDS011;71287;48.414;11.478;2023-07-13T14:42:41;0.80;;;0.57;;
9178;SDS011;71287;48.414;11.478;2023-07-13T14:45:12;1.25;;;0.75;;
9178;SDS011;71287;48.414;11.478;2023-07-13T14:47:40;1.95;;;1.05;;
9178;SDS011;71287;48.414;11.478;2023-07-13T14:50:11;0.98;;;0.90;;
9178;SDS011;71287;48.414;11.478;2023-07-13T14:52:43;1.60;;;0.90;;
9178;SDS011;71287;48.414;11.478;2023-07-13T14:55:11;1.45;;;0.80;;
9178;SDS011;71287;48.414;11.478;2023-07-13T14:57:39;1.42;;;0.90;;
9178;SDS011;71287;48.414;11.478;2023-07-13T15:00:12;1.52;;;0.85;;
9178;SDS011;71287;48.414;11.478;2023-07-13T15:02:40;1.30;;;0.80;;